createdAt,value
2022-12-11T00:00:31.757Z,100750.16
2022-12-11T00:03:01.123Z,100750.16
2022-12-11T00:05:29.106Z,100745.81
2022-12-11T00:07:57.529Z,100750.16
2022-12-11T00:10:25.572Z,100755.53
2022-12-11T00:12:53.490Z,100743.94
2022-12-11T00:15:21.489Z,100749.31
2022-12-11T00:17:49.460Z,100746.50
2022-12-11T00:20:19.257Z,100755.41
2022-12-11T00:22:47.209Z,100747.22
2022-12-11T00:25:15.119Z,100755.25
2022-12-11T00:27:43.066Z,100748.22
2022-12-11T00:30:12.056Z,100748.22
2022-12-11T00:32:39.979Z,100744.81
2022-12-11T00:35:08.628Z,100747.50
2022-12-11T00:37:38.313Z,100743.94
2022-12-11T00:40:07.254Z,100743.94
2022-12-11T00:42:35.407Z,100748.50
2022-12-11T00:45:03.332Z,100748.50
2022-12-11T00:47:31.269Z,100748.50
2022-12-11T00:49:59.206Z,100751.16
2022-12-11T00:52:27.160Z,100749.31
2022-12-11T00:54:56.555Z,100744.81
2022-12-11T00:57:24.459Z,100753.56
2022-12-11T00:59:52.367Z,100751.31
2022-12-11T01:02:20.277Z,100750.16
2022-12-11T01:04:48.249Z,100761.75
2022-12-11T01:07:16.324Z,100761.91
2022-12-11T01:10:01.368Z,100764.56
2022-12-11T01:12:30.687Z,100765.41
2022-12-11T01:14:58.581Z,100764.56
2022-12-11T01:17:26.596Z,100767.25
2022-12-11T01:19:55.083Z,100759.22
2022-12-11T01:22:24.304Z,100759.22
2022-12-11T01:24:52.203Z,100767.25
2022-12-11T01:27:20.121Z,100764.56
2022-12-11T01:29:49.633Z,100766.25
2022-12-11T01:32:17.695Z,100759.22
2022-12-11T01:34:45.597Z,100763.72
2022-12-11T01:37:13.566Z,100764.56
2022-12-11T01:39:41.504Z,100761.91
2022-12-11T01:42:18.122Z,100764.56
2022-12-11T01:45:32.070Z,100768.22
2022-12-11T01:48:06.533Z,100774.44
2022-12-11T01:50:39.902Z,100768.22
2022-12-11T01:53:11.876Z,100766.53
2022-12-11T01:55:41.097Z,100761.44
2022-12-11T01:58:11.400Z,100771.91
2022-12-11T02:00:40.695Z,100763.84
2022-12-11T02:03:09.172Z,100763.84
2022-12-11T02:05:37.901Z,100764.72
2022-12-11T02:08:08.272Z,100760.19
2022-12-11T02:10:49.051Z,100761.91
2022-12-11T02:13:22.790Z,100762.84
2022-12-11T02:16:00.144Z,100757.50
2022-12-11T02:18:36.104Z,100755.81
2022-12-11T02:21:09.171Z,100757.50
2022-12-11T02:24:01.836Z,100763.84
2022-12-11T02:26:46.668Z,100754.94
2022-12-11T02:29:22.057Z,100757.78
2022-12-11T02:31:55.974Z,100755.25
2022-12-11T02:34:30.799Z,100757.63
2022-12-11T02:37:06.725Z,100761.16
2022-12-11T02:39:39.872Z,100757.50
2022-12-11T02:42:09.964Z,100751.31
2022-12-11T02:44:41.214Z,100750.44
2022-12-11T02:47:14.395Z,100754.81
2022-12-11T02:49:44.765Z,100748.75
2022-12-11T02:52:15.772Z,100750.44
2022-12-11T02:54:45.882Z,100753.13
2022-12-11T02:57:18.459Z,100752.41
2022-12-11T02:59:48.207Z,100754.00
2022-12-11T03:02:18.885Z,100751.44
2022-12-11T03:04:48.079Z,100754.13
2022-12-11T03:07:20.736Z,100755.81
2022-12-11T03:09:49.588Z,100752.13
2022-12-11T03:12:21.813Z,100747.63
2022-12-11T03:14:51.772Z,100746.78
2022-12-11T03:17:23.163Z,100748.50
2022-12-11T03:19:56.919Z,100748.50
2022-12-11T03:22:33.748Z,100743.13
2022-12-11T03:25:05.092Z,100748.50
2022-12-11T03:27:39.308Z,100725.31
2022-12-11T03:30:12.770Z,100746.78
2022-12-11T03:32:45.718Z,100735.22
2022-12-11T03:35:21.083Z,100733.38
2022-12-11T03:37:51.788Z,100728.00
2022-12-11T03:40:22.551Z,100738.72
2022-12-11T03:42:53.577Z,100728.00
2022-12-11T03:45:26.096Z,100730.69
2022-12-11T03:47:56.509Z,100736.03
2022-12-11T03:50:28.524Z,100730.69
2022-12-11T03:52:58.778Z,100730.69
2022-12-11T03:55:28.110Z,100731.53
2022-12-11T03:57:56.089Z,100729.72
2022-12-11T04:00:25.692Z,100727.03
2022-12-11T04:03:12.936Z,100724.34
2022-12-11T04:05:41.855Z,100725.31
2022-12-11T04:08:09.992Z,100722.63
2022-12-11T04:10:37.988Z,100722.63
2022-12-11T04:13:05.987Z,100725.59
2022-12-11T04:15:34.669Z,100726.19
2022-12-11T04:18:20.303Z,100725.31
2022-12-11T04:21:05.796Z,100725.31
2022-12-11T04:23:51.324Z,100725.31
2022-12-11T04:26:21.996Z,100719.97
2022-12-11T04:28:50.943Z,100718.28
2022-12-11T04:31:22.223Z,100725.31
2022-12-11T04:33:50.555Z,100725.31
2022-12-11T04:36:18.583Z,100718.28
2022-12-11T04:38:46.536Z,100719.97
2022-12-11T04:41:16.435Z,100719.97
2022-12-11T04:43:45.497Z,100723.63
2022-12-11T04:46:17.537Z,100729.00
2022-12-11T04:48:49.270Z,100720.97
2022-12-11T04:51:21.225Z,100721.09
2022-12-11T04:53:49.460Z,100677.59
2022-12-11T04:56:17.691Z,100718.28
2022-12-11T04:58:46.704Z,100714.88
2022-12-11T05:01:18.966Z,100715.59
2022-12-11T05:03:48.665Z,100719.97
2022-12-11T05:06:16.771Z,100706.41
2022-12-11T05:08:45.718Z,100701.47
2022-12-11T05:11:16.089Z,100700.50
2022-12-11T05:13:44.905Z,100710.22
2022-12-11T05:16:15.063Z,100708.53
2022-12-11T05:18:43.265Z,100708.53
2022-12-11T05:21:14.287Z,100710.38
2022-12-11T05:23:42.564Z,100716.31
2022-12-11T05:26:13.975Z,100719.97
2022-12-11T05:28:42.017Z,100716.59
2022-12-11T05:31:14.098Z,100725.31
2022-12-11T05:33:42.255Z,100719.97
2022-12-11T05:36:15.093Z,100712.63
2022-12-11T05:38:43.015Z,100719.13
2022-12-11T05:41:14.503Z,100719.97
2022-12-11T05:43:43.239Z,100724.50
2022-12-11T05:46:13.245Z,100719.00
2022-12-11T05:48:43.070Z,100710.09
2022-12-11T05:51:13.439Z,100702.88
2022-12-11T05:53:42.540Z,100707.81
2022-12-11T05:56:13.532Z,100709.22
2022-12-11T05:58:42.186Z,100721.81
2022-12-11T06:01:12.274Z,100704.72
2022-12-11T06:03:40.401Z,100707.53
2022-12-11T06:06:09.394Z,100710.94
2022-12-11T06:08:38.898Z,100723.50
2022-12-11T06:11:07.628Z,100719.97
2022-12-11T06:13:36.065Z,100720.81
2022-12-11T06:16:05.654Z,100723.50
2022-12-11T06:18:37.091Z,100691.44
2022-12-11T06:21:12.765Z,100732.41
2022-12-11T06:23:42.637Z,100739.44
2022-12-11T06:26:11.699Z,100737.75
2022-12-11T06:28:40.075Z,100748.50
2022-12-11T06:31:08.204Z,100743.13
2022-12-11T06:33:36.701Z,100743.94
2022-12-11T06:36:05.202Z,100743.94
2022-12-11T06:38:33.667Z,100727.72
2022-12-11T06:41:06.095Z,100747.50
2022-12-11T06:43:34.759Z,100752.13
2022-12-11T06:46:05.180Z,100746.78
2022-12-11T06:48:33.429Z,100753.84
2022-12-11T06:51:05.616Z,100754.69
2022-12-11T06:53:33.584Z,100753.00
2022-12-11T06:56:05.593Z,100753.84
2022-12-11T06:58:35.825Z,100754.69
2022-12-11T07:01:04.315Z,100756.09
2022-12-11T07:03:32.431Z,100756.66
2022-12-11T07:06:02.351Z,100754.81
2022-12-11T07:08:32.022Z,100757.50
2022-12-11T07:11:05.629Z,100756.53
2022-12-11T07:13:33.831Z,100753.84
2022-12-11T07:16:02.202Z,100756.38
2022-12-11T07:18:30.319Z,100765.72
2022-12-11T07:20:59.267Z,100761.75
2022-12-11T07:23:28.338Z,100763.19
2022-12-11T07:25:56.610Z,100761.19
2022-12-11T07:28:26.182Z,100756.41
2022-12-11T07:30:54.372Z,100762.63
2022-12-11T07:33:22.521Z,100764.31
2022-12-11T07:35:50.464Z,100760.91
2022-12-11T07:38:18.405Z,100762.91
2022-12-11T07:40:46.473Z,100770.25
2022-12-11T07:43:14.932Z,100763.19
2022-12-11T07:45:44.418Z,100766.84
2022-12-11T07:48:12.836Z,100762.19
2022-12-11T07:50:40.905Z,100769.97
2022-12-11T07:53:08.852Z,100769.69
2022-12-11T07:55:36.832Z,100772.22
2022-12-11T07:58:04.933Z,100769.41
2022-12-11T08:00:32.909Z,100778.19
2022-12-11T08:03:02.252Z,100770.00
2022-12-11T08:05:30.546Z,100773.22
2022-12-11T08:07:58.718Z,100780.31
2022-12-11T08:10:26.756Z,100782.00
2022-12-11T08:12:54.850Z,100780.16
2022-12-11T08:15:22.829Z,100777.34
2022-12-11T08:17:50.888Z,100778.16
2022-12-11T08:20:20.271Z,100779.88
2022-12-11T08:22:48.326Z,100785.13
2022-12-11T08:25:16.310Z,100782.72
2022-12-11T08:27:44.349Z,100776.91
2022-12-11T08:30:13.230Z,100778.88
2022-12-11T08:32:41.365Z,100781.53
2022-12-11T08:35:10.332Z,100784.50
2022-12-11T08:37:40.224Z,100782.81
2022-12-11T08:40:10.858Z,100773.09
2022-12-11T08:42:38.780Z,100780.41
2022-12-11T08:45:08.076Z,100787.75
2022-12-11T08:47:36.237Z,100789.72
2022-12-11T08:50:04.434Z,100785.34
2022-12-11T08:52:32.484Z,100788.03
2022-12-11T08:55:01.779Z,100783.66
2022-12-11T08:57:29.779Z,100784.66
2022-12-11T08:59:57.986Z,100788.28
2022-12-11T09:02:26.001Z,100787.47
2022-12-11T09:04:54.092Z,100797.34
2022-12-11T09:07:22.056Z,100792.97
2022-12-11T09:09:50.018Z,100784.94
2022-12-11T09:12:19.339Z,100788.56
2022-12-11T09:14:47.804Z,100790.28
2022-12-11T09:17:15.935Z,100801.97
2022-12-11T09:19:44.068Z,100795.94
2022-12-11T09:22:12.787Z,100806.38
2022-12-11T09:24:40.973Z,100808.34
2022-12-11T09:27:08.918Z,100802.97
2022-12-11T09:29:39.177Z,100809.34
2022-12-11T09:32:07.321Z,100801.28
2022-12-11T09:34:35.382Z,100802.13
2022-12-11T09:37:03.576Z,100808.34
2022-12-11T09:39:31.502Z,100801.28
2022-12-11T09:42:06.775Z,100805.78
2022-12-11T09:44:44.217Z,100799.84
2022-12-11T09:47:24.272Z,100797.88
2022-12-11T09:49:59.866Z,100806.94
2022-12-11T09:52:35.580Z,100796.19
2022-12-11T09:55:06.144Z,100796.19
2022-12-11T09:57:47.229Z,100781.22
2022-12-11T10:00:29.604Z,100789.25
2022-12-11T10:03:23.837Z,100785.75
2022-12-11T10:06:04.260Z,100783.06
2022-12-11T10:08:40.157Z,100781.50
2022-12-11T10:11:29.197Z,100780.38
2022-12-11T10:14:07.640Z,100734.31
2022-12-11T10:16:41.105Z,100761.44
2022-12-11T10:19:19.651Z,100773.31
2022-12-11T10:21:48.992Z,100767.94
2022-12-11T10:24:57.524Z,100773.31
2022-12-11T10:27:21.293Z,100777.84
2022-12-11T10:29:53.958Z,100780.53
2022-12-11T10:32:26.474Z,100775.31
2022-12-11T10:35:02.293Z,100776.00
2022-12-11T10:37:30.216Z,100782.34
2022-12-11T10:39:58.131Z,100776.97
2022-12-11T10:42:26.152Z,100773.31
2022-12-11T10:44:59.584Z,100729.25
2022-12-11T10:47:29.893Z,100770.75
2022-12-11T10:49:59.282Z,100766.25
2022-12-11T10:52:29.248Z,100771.63
2022-12-11T10:55:01.283Z,100771.63
2022-12-11T10:57:30.902Z,100768.22
2022-12-11T11:00:00.405Z,100760.91
2022-12-11T11:02:32.102Z,100763.72
2022-12-11T11:05:01.917Z,100758.22
2022-12-11T11:07:31.532Z,100764.56
2022-12-11T11:10:15.351Z,100766.25
2022-12-11T11:12:45.725Z,100745.94
2022-12-11T11:15:16.992Z,100757.22
2022-12-11T11:17:54.841Z,100757.22
2022-12-11T11:20:25.812Z,100753.84
2022-12-11T11:22:57.154Z,100757.22
2022-12-11T11:25:26.672Z,100759.91
2022-12-11T11:27:58.673Z,100753.84
2022-12-11T11:30:30.241Z,100755.53
2022-12-11T11:33:03.154Z,100760.91
2022-12-11T11:35:32.770Z,100756.53
2022-12-11T11:38:11.073Z,100753.00
2022-12-11T11:40:43.580Z,100752.13
2022-12-11T11:43:20.240Z,100753.00
2022-12-11T11:45:53.787Z,100756.53
2022-12-11T11:48:39.797Z,100759.22
2022-12-11T11:51:16.204Z,100768.22
2022-12-11T11:53:49.567Z,100757.50
2022-12-11T11:56:22.674Z,100751.16
2022-12-11T11:59:04.237Z,100753.00
2022-12-11T12:01:32.606Z,100755.53
2022-12-11T12:04:04.035Z,100752.13
2022-12-11T12:06:48.945Z,100753.84
2022-12-11T12:09:32.870Z,100752.13
2022-12-11T12:12:20.920Z,100750.84
2022-12-11T12:15:08.401Z,100756.66
2022-12-11T12:17:49.225Z,100757.78
2022-12-11T12:20:32.048Z,100763.72
2022-12-11T12:23:13.825Z,100758.50
2022-12-11T12:25:47.456Z,100758.50
2022-12-11T12:28:28.162Z,100755.81
2022-12-11T12:31:11.500Z,100762.84
2022-12-11T12:33:52.712Z,100759.50
2022-12-11T12:36:28.788Z,100762.03
2022-12-11T12:39:03.252Z,100755.81
2022-12-11T12:41:43.807Z,100761.91
2022-12-11T12:44:16.588Z,100753.84
2022-12-11T12:46:53.035Z,100757.50
2022-12-11T12:49:31.253Z,100749.44
2022-12-11T12:52:01.659Z,100750.44
2022-12-11T12:54:33.169Z,100752.13
2022-12-11T12:57:04.193Z,100753.13
2022-12-11T12:59:32.083Z,100752.13
2022-12-11T13:02:02.188Z,100736.31
2022-12-11T13:04:55.486Z,100748.50
2022-12-11T13:07:29.992Z,100752.13
2022-12-11T13:10:06.637Z,100746.09
2022-12-11T13:12:42.758Z,100757.50
2022-12-11T13:15:28.177Z,100759.22
2022-12-11T13:17:56.374Z,100747.03
2022-12-11T13:20:26.470Z,100739.72
2022-12-11T13:23:16.579Z,100747.75
2022-12-11T13:25:53.756Z,100746.91
2022-12-11T13:28:25.551Z,100745.94
2022-12-11T13:31:01.960Z,100745.09
2022-12-11T13:33:31.146Z,100736.03
2022-12-11T13:36:30.225Z,100729.00
2022-12-11T13:39:03.443Z,100741.41
2022-12-11T13:41:33.783Z,100741.41
2022-12-11T13:44:02.438Z,100736.31
2022-12-11T13:46:36.232Z,100741.41
2022-12-11T13:49:07.520Z,100748.50
2022-12-11T13:51:37.425Z,100718.97
2022-12-11T13:54:17.277Z,100751.84
2022-12-11T13:57:03.254Z,100746.50
2022-12-11T13:59:34.223Z,100755.53
2022-12-11T14:02:06.259Z,100749.03
2022-12-11T14:04:35.857Z,100753.84
2022-12-11T14:07:07.954Z,100753.00
2022-12-11T14:09:40.430Z,100757.50
2022-12-11T14:12:10.459Z,100759.22
2022-12-11T14:14:43.189Z,100757.50
2022-12-11T14:17:15.827Z,100753.00
2022-12-11T14:19:49.076Z,100763.72
2022-12-11T14:22:21.984Z,100750.03
2022-12-11T14:24:52.579Z,100755.81
2022-12-11T14:27:21.612Z,100764.56
2022-12-11T14:29:50.255Z,100730.94
2022-12-11T14:32:22.121Z,100763.72
2022-12-11T14:34:51.534Z,100762.84
2022-12-11T14:37:23.107Z,100758.34
2022-12-11T14:39:58.921Z,100760.03
2022-12-11T14:42:30.116Z,100759.22
2022-12-11T14:45:02.489Z,100754.81
2022-12-11T14:47:33.820Z,100745.63
2022-12-11T14:50:06.509Z,100764.56
2022-12-11T14:52:37.854Z,100766.25
2022-12-11T14:55:10.617Z,100751.72
2022-12-11T14:57:41.977Z,100758.22
2022-12-11T15:00:21.940Z,100764.56
2022-12-11T15:02:59.270Z,100769.94
2022-12-11T15:05:27.365Z,100763.13
2022-12-11T15:08:00.175Z,100762.84
2022-12-11T15:10:36.655Z,100763.72
2022-12-11T15:13:07.498Z,100760.19
2022-12-11T15:15:46.585Z,100767.41
2022-12-11T15:18:21.966Z,100768.22
2022-12-11T15:20:53.702Z,100764.56
2022-12-11T15:23:22.296Z,100764.84
2022-12-11T15:25:56.859Z,100763.13
2022-12-11T15:28:29.725Z,100770.22
2022-12-11T15:30:59.986Z,100775.44
2022-12-11T15:33:34.129Z,100773.59
2022-12-11T15:36:05.566Z,100773.84
2022-12-11T15:38:36.762Z,100767.94
2022-12-11T15:41:07.904Z,100774.75
2022-12-11T15:43:38.422Z,100770.78
2022-12-11T15:46:07.375Z,100781.53
2022-12-11T15:48:35.708Z,100785.19
2022-12-11T15:51:04.681Z,100779.13
2022-12-11T15:53:32.680Z,100782.06
2022-12-11T15:56:01.056Z,100789.13
2022-12-11T15:58:31.071Z,100780.94
2022-12-11T16:01:00.091Z,100775.84
2022-12-11T16:03:28.074Z,100692.72
2022-12-11T16:05:56.097Z,100782.34
2022-12-11T16:08:25.201Z,100785.03
2022-12-11T16:10:55.051Z,100791.13
2022-12-11T16:13:23.598Z,100792.22
2022-12-11T16:15:54.252Z,100791.38
2022-12-11T16:18:23.566Z,100796.75
2022-12-11T16:20:52.679Z,100793.34
2022-12-11T16:23:21.190Z,100785.44
2022-12-11T16:25:49.767Z,100789.53
2022-12-11T16:28:21.254Z,100790.53
2022-12-11T16:30:49.720Z,100794.06
2022-12-11T16:33:19.461Z,100792.34
2022-12-11T16:35:47.389Z,100780.94
2022-12-11T16:38:15.308Z,100783.34
2022-12-11T16:40:43.275Z,100795.88
2022-12-11T16:43:11.557Z,100802.94
2022-12-11T16:45:39.552Z,100790.81
2022-12-11T16:48:07.721Z,100800.66
2022-12-11T16:50:37.346Z,100800.41
2022-12-11T16:53:05.304Z,100798.97
2022-12-11T16:55:33.607Z,100804.06
2022-12-11T16:58:02.600Z,100799.56
2022-12-11T17:00:30.568Z,100802.38
2022-12-11T17:02:58.533Z,100801.53
2022-12-11T17:05:26.527Z,100795.31
2022-12-11T17:07:55.960Z,100798.84
2022-12-11T17:10:23.884Z,100799.84
2022-12-11T17:12:51.817Z,100796.44
2022-12-11T17:15:19.992Z,100813.94
2022-12-11T17:17:47.951Z,100800.66
2022-12-11T17:20:15.886Z,100795.31
2022-12-11T17:22:43.811Z,100801.53
2022-12-11T17:25:15.036Z,100802.38
2022-12-11T17:27:43.128Z,100800.66
2022-12-11T17:30:12.104Z,100786.31
2022-12-11T17:32:40.001Z,100786.44
2022-12-11T17:35:08.654Z,100788.25
2022-12-11T17:37:36.671Z,100794.63
2022-12-11T17:40:05.294Z,100798.00
2022-12-11T17:42:35.031Z,100785.56
2022-12-11T17:45:02.985Z,100782.91
2022-12-11T17:47:30.933Z,100778.38
2022-12-11T17:49:58.916Z,100784.56
2022-12-11T17:52:33.986Z,100777.53
2022-12-11T17:55:03.179Z,100779.22
2022-12-11T17:57:31.144Z,100779.22
2022-12-11T18:00:00.545Z,100784.56
2022-12-11T18:02:28.952Z,100788.25
2022-12-11T18:04:56.897Z,100799.84
2022-12-11T18:07:25.324Z,100795.31
2022-12-11T18:09:53.232Z,100796.31
2022-12-11T18:12:21.226Z,100802.66
2022-12-11T18:14:49.146Z,100791.94
2022-12-11T18:17:18.471Z,100798.97
2022-12-11T18:19:46.425Z,100798.16
2022-12-11T18:22:14.403Z,100802.66
2022-12-11T18:24:42.455Z,100804.34
2022-12-11T18:27:12.527Z,100804.34
2022-12-11T18:29:40.462Z,100796.44
2022-12-11T18:32:08.682Z,100798.97
2022-12-11T18:34:38.100Z,100798.97
2022-12-11T18:37:06.130Z,100802.66
2022-12-11T18:39:34.089Z,100789.13
2022-12-11T18:42:31.570Z,100781.22
2022-12-11T18:44:50.133Z,100786.44
2022-12-11T18:47:18.096Z,100782.91
2022-12-11T18:49:47.638Z,100784.56
2022-12-11T18:52:15.787Z,100779.22
2022-12-11T18:54:43.833Z,100759.44
2022-12-11T18:57:11.971Z,100791.38
2022-12-11T18:59:40.321Z,100790.53
2022-12-11T19:02:08.651Z,100778.94
2022-12-11T19:04:38.990Z,100788.84
2022-12-11T19:07:08.356Z,100786.03
2022-12-11T19:09:38.470Z,100796.75
2022-12-11T19:12:07.588Z,100788.25
2022-12-11T19:14:35.551Z,100783.75
2022-12-11T19:17:04.399Z,100792.34
2022-12-11T19:19:32.361Z,100789.66
2022-12-11T19:22:00.288Z,100782.63
2022-12-11T19:24:29.692Z,100782.63
2022-12-11T19:26:58.217Z,100797.03
2022-12-11T19:29:29.316Z,100780.94
2022-12-11T19:31:57.532Z,100794.22
2022-12-11T19:34:26.244Z,100789.66
2022-12-11T19:36:54.286Z,100792.22
2022-12-11T19:39:22.281Z,100786.03
2022-12-11T19:41:51.699Z,100794.75
2022-12-11T19:44:19.650Z,100798.44
2022-12-11T19:46:47.632Z,100795.75
2022-12-11T19:49:16.043Z,100795.63
2022-12-11T19:51:44.961Z,100787.72
2022-12-11T19:54:14.649Z,100790.53
2022-12-11T19:56:42.906Z,100793.06
2022-12-11T19:59:15.712Z,100791.66
2022-12-11T20:01:44.125Z,100795.03
2022-12-11T20:04:14.578Z,100803.06
2022-12-11T20:06:44.503Z,100805.75
2022-12-11T20:09:12.823Z,100803.06
2022-12-11T20:11:42.238Z,100768.19
2022-12-11T20:14:10.676Z,100789.94
2022-12-11T20:17:09.432Z,100800.13
2022-12-11T20:19:27.917Z,100787.72
2022-12-11T20:21:55.963Z,100796.75
2022-12-11T20:24:23.957Z,100793.06
2022-12-11T20:26:54.568Z,100782.75
2022-12-11T20:29:22.793Z,100786.31
2022-12-11T20:31:52.938Z,100801.25
2022-12-11T20:34:21.126Z,100788.00
2022-12-11T20:36:49.707Z,100789.66
2022-12-11T20:39:17.642Z,100788.00
2022-12-11T20:41:45.625Z,100778.38
2022-12-11T20:44:13.566Z,100788.84
2022-12-11T20:46:41.528Z,100780.22
2022-12-11T20:49:13.020Z,100782.63
2022-12-11T20:51:41.819Z,100784.31
2022-12-11T20:54:09.833Z,100777.97
2022-12-11T20:56:38.836Z,100773.59
2022-12-11T20:59:06.912Z,100781.63
2022-12-11T21:01:35.102Z,100770.91
2022-12-11T21:04:03.465Z,100769.94
2022-12-11T21:06:34.877Z,100773.59
2022-12-11T21:09:06.807Z,100779.81
2022-12-11T21:11:34.783Z,100769.94
2022-12-11T21:14:02.733Z,100768.22
2022-12-11T21:16:30.842Z,100771.19
2022-12-11T21:18:59.238Z,100765.13
2022-12-11T21:21:27.287Z,100768.22
2022-12-11T21:23:56.728Z,100769.06
2022-12-11T21:26:25.104Z,100673.97
2022-12-11T21:28:53.360Z,100768.22
2022-12-11T21:31:21.459Z,100767.41
2022-12-11T21:33:50.034Z,100773.59
2022-12-11T21:36:18.561Z,100777.53
2022-12-11T21:38:47.668Z,100786.16
2022-12-11T21:41:19.579Z,100784.31
2022-12-11T21:46:36.856Z,100776.41
2022-12-11T21:49:08.256Z,100782.63
2022-12-11T21:51:41.496Z,100789.66
2022-12-11T21:54:15.643Z,100783.47
2022-12-11T21:56:46.804Z,100788.00
2022-12-11T21:59:15.524Z,100776.13
2022-12-11T22:01:46.264Z,100792.34
2022-12-11T22:04:15.877Z,100773.44
2022-12-11T22:06:46.982Z,100789.66
2022-12-11T22:09:15.904Z,100758.63
2022-12-11T22:11:46.570Z,100738.28
2022-12-11T22:14:15.452Z,100778.94
2022-12-11T22:16:43.754Z,100773.59
2022-12-11T22:19:12.108Z,100773.59
2022-12-11T22:21:40.496Z,100779.81
2022-12-11T22:24:08.960Z,100767.09
2022-12-11T22:26:36.948Z,100771.91
2022-12-11T22:29:06.342Z,100778.94
2022-12-11T22:31:34.313Z,100782.63
2022-12-11T22:34:02.237Z,100782.06
2022-12-11T22:36:31.166Z,100782.63
2022-12-11T22:39:01.395Z,100782.63
2022-12-11T22:41:32.106Z,100778.94
2022-12-11T22:44:00.964Z,100778.13
2022-12-11T22:46:31.447Z,100778.25
2022-12-11T22:49:00.202Z,100780.94
2022-12-11T22:51:28.110Z,100782.63
2022-12-11T22:53:56.320Z,100780.94
2022-12-11T22:56:24.290Z,100774.72
2022-12-11T22:58:52.323Z,100770.22
2022-12-11T23:01:22.578Z,100778.13
2022-12-11T23:03:52.374Z,100777.25
2022-12-11T23:06:22.646Z,100776.72
2022-12-11T23:08:50.676Z,100790.66
2022-12-11T23:11:21.117Z,100789.66
2022-12-11T23:13:49.042Z,100800.41
2022-12-11T23:16:17.096Z,100795.03
2022-12-11T23:18:45.248Z,100795.03
2022-12-11T23:21:14.876Z,100805.75
2022-12-11T23:23:42.877Z,100804.94
2022-12-11T23:26:12.384Z,100803.94
2022-12-11T23:28:40.548Z,100805.75
2022-12-11T23:31:08.972Z,100801.38
2022-12-11T23:33:37.588Z,100783.59
2022-12-11T23:36:07.902Z,100793.34
2022-12-11T23:38:37.639Z,100800.66
2022-12-11T23:41:07.007Z,100789.94
2022-12-11T23:43:36.627Z,100801.53
2022-12-11T23:46:05.451Z,100804.06
2022-12-11T23:48:33.472Z,100786.31
2022-12-11T23:51:02.620Z,100788.00
2022-12-11T23:53:31.531Z,100782.75
2022-12-11T23:56:06.715Z,100788.00
2022-12-11T23:58:36.919Z,100797.03
